Shamal Skanor — SIBN — position and weather

sailwx.info

Track history (hours):
 
Tides and Currents Weather Stations Pressure Air Temp Water Temp Dewpoint Dewpoint Depression Visibility Wind Speed Wind Dir Waves Ship Positions

Shamal Skanor

Last reported at 2015-Jul-25 16:33 UTC. Time now 2015-Aug-01 03:31 UTC.
Position N 55°27' E 012°49'.

Length 15 m.

Type: Pleasure craft. MMSI: 265684130.

Date/timePositionNaut miles runAvg speedWind from/ knotsBaromVisibWave heightAir tempDewpointWater temp
2015-Jul-25 16:33N 55°27' E 012°49'7 6.7
2015-Jul-25 15:33N 55°34' E 012°51'6 5.8
2015-Jul-25 14:31N 55°40' E 012°51'6 6.4
2015-Jul-25 13:33N 55°46' E 012°48'6 5.5
2015-Jul-25 12:25N 55°52' E 012°45'5 5.8
2015-Jul-25 11:33N 55°57' E 012°44'6 5.9
2015-Jul-25 10:33N 56°02' E 012°41'1 0.0
2015-Jul-24 19:22N 56°03' E 012°41'0 0.0
2015-Jul-24 18:31N 56°03' E 012°41'0 0.0
2015-Jul-24 17:28N 56°03' E 012°41'0 0.0
2015-Jul-24 16:33N 56°03' E 012°41'6 6.0
2015-Jul-24 15:33N 56°07' E 012°34'38 1.4
2015-Jul-23 11:30N 56°45' E 012°31'8 8.1
2015-Jul-23 10:33N 56°52' E 012°23'7 7.4
2015-Jul-23 09:33N 56°58' E 012°17'7 6.3
2015-Jul-23 08:28N 57°05' E 012°13'26 1.2
2015-Jul-22 09:31N 57°28' E 011°50'7 6.9
2015-Jul-22 08:33N 57°34' E 011°48'1 0.0
2015-Jul-20 18:25N 57°36' E 011°48'0 0.0
2015-Jul-20 17:31N 57°36' E 011°48'2 2.1
2015-Jul-20 16:33N 57°38' E 011°49'4 4.0
2015-Jul-20 15:32N 57°41' E 011°53'0 0.0
2015-Jul-20 14:32N 57°41' E 011°53'0 0.0
2015-Jul-20 13:32N 57°41' E 011°53'0 0.2
2015-Jul-20 12:33N 57°41' E 011°53'0 0.0
2015-Jul-19 12:32N 57°41' E 011°53'3 3.2
2015-Jul-19 11:33N 57°41' E 011°47'5 4.4
2015-Jul-19 10:32N 57°42' E 011°39'0 0.0
2015-Jul-18 18:16N 57°42' E 011°39'0 0.0
2015-Jul-18 17:31N 57°42' E 011°39'0 0.0
2015-Jul-18 16:31N 57°42' E 011°39'0 0.0
2015-Jul-18 15:31N 57°42' E 011°39'0 0.0
2015-Jul-18 14:31N 57°42' E 011°39'0 0.0
2015-Jul-18 13:31N 57°42' E 011°39'0 0.0
2015-Jul-18 12:31N 57°42' E 011°39'2 1.8
2015-Jul-18 11:33N 57°43' E 011°42'6 6.1
2015-Jul-18 10:33N 57°49' E 011°40'6 5.0
2015-Jul-18 09:27N 57°54' E 011°34'6 0.2
2015-Jul-17 10:04N 57°49' E 011°38'3 5.1
2015-Jul-17 09:32N 57°46' E 011°39'4 0.3
2015-Jul-16 19:31N 57°42' E 011°39'0 0.0
2015-Jul-16 18:32N 57°42' E 011°39'0 0.0
2015-Jul-16 17:26N 57°42' E 011°39'0 0.0
2015-Jul-16 16:32N 57°42' E 011°39'0 0.0
2015-Jul-16 15:32N 57°42' E 011°39'0 0.0
2015-Jul-16 14:32N 57°42' E 011°39'0 0.0
2015-Jul-16 13:32N 57°42' E 011°39'0 0.0
2015-Jul-16 12:32N 57°42' E 011°39'0 0.0
2015-Jul-16 11:32N 57°42' E 011°39'1 1.4
2015-Jul-16 10:33N 57°42' E 011°42'6 5.9
2015-Jul-16 09:33N 57°41' E 011°53'3 2.9
2015-Jul-16 08:31N 57°43' E 011°58'1 0.9
2015-Jul-16 07:33N 57°42' E 011°57'  
Track history (hours):
 
Tides and Currents Weather Stations Pressure Air Temp Water Temp Dewpoint Dewpoint Depression Visibility Wind Speed Wind Dir Waves Ship Positions

Shamal Skanor

Last reported at 2015-Jul-25 16:33 UTC. Time now 2015-Aug-01 03:31 UTC.
Position N 55°27' E 012°49'.

Length 15 m.

Type: Pleasure craft. MMSI: 265684130.

Date/timePositionNaut miles runAvg speedWind from/ knotsBaromVisibWave heightAir tempDewpointWater temp
2015-Jul-25 16:33N 55°27' E 012°49'7 6.7
2015-Jul-25 15:33N 55°34' E 012°51'6 5.8
2015-Jul-25 14:31N 55°40' E 012°51'6 6.4
2015-Jul-25 13:33N 55°46' E 012°48'6 5.5
2015-Jul-25 12:25N 55°52' E 012°45'5 5.8
2015-Jul-25 11:33N 55°57' E 012°44'6 5.9
2015-Jul-25 10:33N 56°02' E 012°41'1 0.0
2015-Jul-24 19:22N 56°03' E 012°41'0 0.0
2015-Jul-24 18:31N 56°03' E 012°41'0 0.0
2015-Jul-24 17:28N 56°03' E 012°41'0 0.0
2015-Jul-24 16:33N 56°03' E 012°41'6 6.0
2015-Jul-24 15:33N 56°07' E 012°34'38 1.4
2015-Jul-23 11:30N 56°45' E 012°31'8 8.1
2015-Jul-23 10:33N 56°52' E 012°23'7 7.4
2015-Jul-23 09:33N 56°58' E 012°17'7 6.3
2015-Jul-23 08:28N 57°05' E 012°13'26 1.2
2015-Jul-22 09:31N 57°28' E 011°50'7 6.9
2015-Jul-22 08:33N 57°34' E 011°48'1 0.0
2015-Jul-20 18:25N 57°36' E 011°48'0 0.0
2015-Jul-20 17:31N 57°36' E 011°48'2 2.1
2015-Jul-20 16:33N 57°38' E 011°49'4 4.0
2015-Jul-20 15:32N 57°41' E 011°53'0 0.0
2015-Jul-20 14:32N 57°41' E 011°53'0 0.0
2015-Jul-20 13:32N 57°41' E 011°53'0 0.2
2015-Jul-20 12:33N 57°41' E 011°53'0 0.0
2015-Jul-19 12:32N 57°41' E 011°53'3 3.2
2015-Jul-19 11:33N 57°41' E 011°47'5 4.4
2015-Jul-19 10:32N 57°42' E 011°39'0 0.0
2015-Jul-18 18:16N 57°42' E 011°39'0 0.0
2015-Jul-18 17:31N 57°42' E 011°39'0 0.0
2015-Jul-18 16:31N 57°42' E 011°39'0 0.0
2015-Jul-18 15:31N 57°42' E 011°39'0 0.0
2015-Jul-18 14:31N 57°42' E 011°39'0 0.0
2015-Jul-18 13:31N 57°42' E 011°39'0 0.0
2015-Jul-18 12:31N 57°42' E 011°39'2 1.8
2015-Jul-18 11:33N 57°43' E 011°42'6 6.1
2015-Jul-18 10:33N 57°49' E 011°40'6 5.0
2015-Jul-18 09:27N 57°54' E 011°34'6 0.2
2015-Jul-17 10:04N 57°49' E 011°38'3 5.1
2015-Jul-17 09:32N 57°46' E 011°39'4 0.3
2015-Jul-16 19:31N 57°42' E 011°39'0 0.0
2015-Jul-16 18:32N 57°42' E 011°39'0 0.0
2015-Jul-16 17:26N 57°42' E 011°39'0 0.0
2015-Jul-16 16:32N 57°42' E 011°39'0 0.0
2015-Jul-16 15:32N 57°42' E 011°39'0 0.0
2015-Jul-16 14:32N 57°42' E 011°39'0 0.0
2015-Jul-16 13:32N 57°42' E 011°39'0 0.0
2015-Jul-16 12:32N 57°42' E 011°39'0 0.0
2015-Jul-16 11:32N 57°42' E 011°39'1 1.4
2015-Jul-16 10:33N 57°42' E 011°42'6 5.9
2015-Jul-16 09:33N 57°41' E 011°53'3 2.9
2015-Jul-16 08:31N 57°43' E 011°58'1 0.9
2015-Jul-16 07:33N 57°42' E 011°57'  

Dump ship's entire track history